sensor_id;sensor_type;location;lat;lon;timestamp;pressure;altitude;pressure_sealevel;temperature;humidity
77626;BME280;66794;43.764;10.436;2023-04-26T00:02:03;101416.50;;;9.79;100.00
77626;BME280;66794;43.764;10.436;2023-04-26T00:04:52;101411.63;;;10.00;100.00
77626;BME280;66794;43.764;10.436;2023-04-26T00:07:40;101410.94;;;9.81;100.00
77626;BME280;66794;43.764;10.436;2023-04-26T00:10:26;101412.97;;;9.79;100.00
77626;BME280;66794;43.764;10.436;2023-04-26T00:13:12;101407.84;;;9.75;100.00
77626;BME280;66794;43.764;10.436;2023-04-26T00:15:58;101409.72;;;9.75;100.00
77626;BME280;66794;43.764;10.436;2023-04-26T00:18:43;101413.56;;;9.90;100.00
77626;BME280;66794;43.764;10.436;2023-04-26T00:21:30;101406.56;;;10.06;100.00
77626;BME280;66794;43.764;10.436;2023-04-26T00:24:16;101409.28;;;10.06;100.00
77626;BME280;66794;43.764;10.436;2023-04-26T00:27:01;101407.06;;;9.83;100.00
77626;BME280;66794;43.764;10.436;2023-04-26T00:29:53;101412.81;;;9.80;100.00
77626;BME280;66794;43.764;10.436;2023-04-26T00:32:38;101405.88;;;10.04;100.00
77626;BME280;66794;43.764;10.436;2023-04-26T00:35:24;101401.06;;;10.15;100.00
77626;BME280;66794;43.764;10.436;2023-04-26T00:38:10;101402.81;;;9.98;100.00
77626;BME280;66794;43.764;10.436;2023-04-26T00:40:55;101401.16;;;10.06;100.00
77626;BME280;66794;43.764;10.436;2023-04-26T00:43:41;101408.66;;;10.30;100.00
77626;BME280;66794;43.764;10.436;2023-04-26T00:46:26;101407.16;;;9.91;100.00
77626;BME280;66794;43.764;10.436;2023-04-26T00:49:15;101396.38;;;9.99;100.00
77626;BME280;66794;43.764;10.436;2023-04-26T00:52:00;101388.44;;;9.98;100.00
77626;BME280;66794;43.764;10.436;2023-04-26T00:54:47;101398.56;;;9.78;100.00
77626;BME280;66794;43.764;10.436;2023-04-26T00:57:33;101399.13;;;9.82;100.00
77626;BME280;66794;43.764;10.436;2023-04-26T01:00:19;101394.16;;;9.95;100.00
77626;BME280;66794;43.764;10.436;2023-04-26T01:03:05;101395.56;;;9.63;100.00
77626;BME280;66794;43.764;10.436;2023-04-26T01:05:51;101397.75;;;9.14;100.00
77626;BME280;66794;43.764;10.436;2023-04-26T01:08:37;101397.16;;;9.38;100.00
77626;BME280;66794;43.764;10.436;2023-04-26T01:11:23;101355.81;;;9.10;100.00
77626;BME280;66794;43.764;10.436;2023-04-26T01:14:09;101401.81;;;9.46;100.00
77626;BME280;66794;43.764;10.436;2023-04-26T01:16:55;101399.53;;;8.96;100.00
77626;BME280;66794;43.764;10.436;2023-04-26T01:19:47;101400.34;;;9.06;100.00
77626;BME280;66794;43.764;10.436;2023-04-26T01:22:33;101400.09;;;9.27;100.00
77626;BME280;66794;43.764;10.436;2023-04-26T01:25:19;101409.88;;;9.28;100.00
77626;BME280;66794;43.764;10.436;2023-04-26T01:28:05;101410.34;;;8.96;100.00
77626;BME280;66794;43.764;10.436;2023-04-26T01:30:51;101406.06;;;9.03;100.00
77626;BME280;66794;43.764;10.436;2023-04-26T01:33:37;101406.56;;;8.89;100.00
77626;BME280;66794;43.764;10.436;2023-04-26T01:36:23;101412.34;;;8.94;100.00
77626;BME280;66794;43.764;10.436;2023-04-26T01:39:08;101412.16;;;9.05;100.00
77626;BME280;66794;43.764;10.436;2023-04-26T01:41:55;101416.78;;;9.13;100.00
77626;BME280;66794;43.764;10.436;2023-04-26T01:44:42;101422.97;;;9.05;100.00
77626;BME280;66794;43.764;10.436;2023-04-26T01:47:28;101426.53;;;8.68;100.00
77626;BME280;66794;43.764;10.436;2023-04-26T01:50:14;101424.91;;;8.85;100.00
77626;BME280;66794;43.764;10.436;2023-04-26T01:52:59;101388.03;;;8.66;100.00
77626;BME280;66794;43.764;10.436;2023-04-26T01:55:45;101428.81;;;9.01;100.00
77626;BME280;66794;43.764;10.436;2023-04-26T01:58:31;101435.50;;;8.96;100.00
77626;BME280;66794;43.764;10.436;2023-04-26T02:01:16;101386.59;;;8.72;100.00
77626;BME280;66794;43.764;10.436;2023-04-26T02:04:02;101430.91;;;9.07;100.00
77626;BME280;66794;43.764;10.436;2023-04-26T02:06:48;101433.50;;;9.08;100.00
77626;BME280;66794;43.764;10.436;2023-04-26T02:09:34;101431.28;;;8.94;100.00
77626;BME280;66794;43.764;10.436;2023-04-26T02:12:20;101426.03;;;8.55;100.00
77626;BME280;66794;43.764;10.436;2023-04-26T02:15:06;101433.16;;;8.37;100.00
77626;BME280;66794;43.764;10.436;2023-04-26T02:17:52;101436.16;;;7.95;100.00
77626;BME280;66794;43.764;10.436;2023-04-26T02:20:43;101444.25;;;8.05;100.00
77626;BME280;66794;43.764;10.436;2023-04-26T02:23:29;101450.22;;;8.37;100.00
77626;BME280;66794;43.764;10.436;2023-04-26T02:26:15;101451.75;;;8.50;100.00
77626;BME280;66794;43.764;10.436;2023-04-26T02:29:01;101449.97;;;8.68;100.00
77626;BME280;66794;43.764;10.436;2023-04-26T02:31:46;101448.13;;;8.68;100.00
77626;BME280;66794;43.764;10.436;2023-04-26T02:34:33;101446.66;;;8.84;100.00
77626;BME280;66794;43.764;10.436;2023-04-26T02:37:18;101442.88;;;9.04;100.00
77626;BME280;66794;43.764;10.436;2023-04-26T02:40:06;101448.56;;;9.01;100.00
77626;BME280;66794;43.764;10.436;2023-04-26T02:42:55;101445.59;;;9.04;100.00
77626;BME280;66794;43.764;10.436;2023-04-26T02:45:41;101443.97;;;9.11;100.00
77626;BME280;66794;43.764;10.436;2023-04-26T02:48:27;101446.25;;;9.16;100.00
77626;BME280;66794;43.764;10.436;2023-04-26T02:51:13;101448.25;;;8.77;100.00
77626;BME280;66794;43.764;10.436;2023-04-26T02:53:58;101439.72;;;8.05;100.00
77626;BME280;66794;43.764;10.436;2023-04-26T02:56:44;101446.50;;;7.80;100.00
77626;BME280;66794;43.764;10.436;2023-04-26T02:59:29;101447.66;;;7.68;100.00
77626;BME280;66794;43.764;10.436;2023-04-26T03:02:15;101444.94;;;7.87;100.00
77626;BME280;66794;43.764;10.436;2023-04-26T03:05:01;101443.97;;;7.98;100.00
77626;BME280;66794;43.764;10.436;2023-04-26T03:07:47;101444.81;;;8.37;100.00
77626;BME280;66794;43.764;10.436;2023-04-26T03:10:32;101447.25;;;7.73;100.00
77626;BME280;66794;43.764;10.436;2023-04-26T03:13:18;101432.59;;;8.24;100.00
77626;BME280;66794;43.764;10.436;2023-04-26T03:16:04;101437.13;;;8.23;100.00
77626;BME280;66794;43.764;10.436;2023-04-26T03:18:50;101448.50;;;8.17;100.00
77626;BME280;66794;43.764;10.436;2023-04-26T03:21:36;101438.81;;;8.24;100.00
77626;BME280;66794;43.764;10.436;2023-04-26T03:24:21;101442.13;;;8.37;100.00
77626;BME280;66794;43.764;10.436;2023-04-26T03:27:08;101438.78;;;8.53;100.00
77626;BME280;66794;43.764;10.436;2023-04-26T03:29:53;101441.25;;;8.37;100.00
77626;BME280;66794;43.764;10.436;2023-04-26T03:32:39;101440.78;;;8.61;100.00
77626;BME280;66794;43.764;10.436;2023-04-26T03:35:24;101437.31;;;8.68;100.00
77626;BME280;66794;43.764;10.436;2023-04-26T03:38:10;101442.44;;;8.72;100.00
77626;BME280;66794;43.764;10.436;2023-04-26T03:40:56;101449.31;;;8.56;100.00
77626;BME280;66794;43.764;10.436;2023-04-26T03:43:41;101443.69;;;8.87;100.00
77626;BME280;66794;43.764;10.436;2023-04-26T03:46:27;101451.25;;;8.74;100.00
77626;BME280;66794;43.764;10.436;2023-04-26T03:49:12;101451.63;;;8.88;100.00
77626;BME280;66794;43.764;10.436;2023-04-26T03:51:58;101453.41;;;8.70;100.00
77626;BME280;66794;43.764;10.436;2023-04-26T03:54:44;101450.47;;;8.54;100.00
77626;BME280;66794;43.764;10.436;2023-04-26T03:57:29;101458.00;;;8.40;100.00
77626;BME280;66794;43.764;10.436;2023-04-26T04:00:15;101449.19;;;8.19;100.00
77626;BME280;66794;43.764;10.436;2023-04-26T04:03:00;101459.41;;;8.25;100.00
77626;BME280;66794;43.764;10.436;2023-04-26T04:05:46;101415.28;;;7.58;100.00
77626;BME280;66794;43.764;10.436;2023-04-26T04:08:32;101463.16;;;8.05;100.00
77626;BME280;66794;43.764;10.436;2023-04-26T04:11:18;101423.22;;;7.99;100.00
77626;BME280;66794;43.764;10.436;2023-04-26T04:14:04;101459.84;;;8.30;100.00
77626;BME280;66794;43.764;10.436;2023-04-26T04:16:49;101457.31;;;8.38;100.00
77626;BME280;66794;43.764;10.436;2023-04-26T04:19:35;101461.56;;;8.22;100.00
77626;BME280;66794;43.764;10.436;2023-04-26T04:22:21;101458.88;;;8.22;100.00
77626;BME280;66794;43.764;10.436;2023-04-26T04:25:07;101474.34;;;7.81;100.00
77626;BME280;66794;43.764;10.436;2023-04-26T04:27:54;101477.03;;;7.61;100.00
77626;BME280;66794;43.764;10.436;2023-04-26T04:30:40;101473.00;;;7.46;100.00
77626;BME280;66794;43.764;10.436;2023-04-26T04:33:26;101478.19;;;7.19;100.00
77626;BME280;66794;43.764;10.436;2023-04-26T04:36:12;101481.66;;;7.40;100.00
77626;BME280;66794;43.764;10.436;2023-04-26T04:39:01;101478.00;;;7.51;100.00
77626;BME280;66794;43.764;10.436;2023-04-26T04:41:47;101481.16;;;7.85;100.00
77626;BME280;66794;43.764;10.436;2023-04-26T04:44:33;101472.06;;;7.67;100.00
77626;BME280;66794;43.764;10.436;2023-04-26T04:47:19;101486.34;;;7.48;100.00
77626;BME280;66794;43.764;10.436;2023-04-26T04:50:05;101492.84;;;7.35;100.00
77626;BME280;66794;43.764;10.436;2023-04-26T04:52:51;101490.63;;;7.50;100.00
77626;BME280;66794;43.764;10.436;2023-04-26T04:55:37;101497.59;;;7.62;100.00
77626;BME280;66794;43.764;10.436;2023-04-26T04:58:23;101500.53;;;7.50;100.00
77626;BME280;66794;43.764;10.436;2023-04-26T05:01:08;101508.50;;;7.71;100.00
77626;BME280;66794;43.764;10.436;2023-04-26T05:03:54;101504.44;;;7.96;100.00
77626;BME280;66794;43.764;10.436;2023-04-26T05:06:40;101503.59;;;8.14;100.00
77626;BME280;66794;43.764;10.436;2023-04-26T05:09:26;101504.84;;;8.20;100.00
77626;BME280;66794;43.764;10.436;2023-04-26T05:12:11;101508.41;;;8.21;100.00
77626;BME280;66794;43.764;10.436;2023-04-26T05:14:57;101508.16;;;8.43;100.00
77626;BME280;66794;43.764;10.436;2023-04-26T05:17:42;101516.66;;;8.09;100.00
77626;BME280;66794;43.764;10.436;2023-04-26T05:20:32;101523.75;;;8.20;100.00
77626;BME280;66794;43.764;10.436;2023-04-26T05:23:17;101527.19;;;8.22;100.00
77626;BME280;66794;43.764;10.436;2023-04-26T05:26:03;101528.56;;;8.26;100.00
77626;BME280;66794;43.764;10.436;2023-04-26T05:28:50;101535.69;;;8.47;100.00
77626;BME280;66794;43.764;10.436;2023-04-26T05:31:36;101528.97;;;8.89;100.00
77626;BME280;66794;43.764;10.436;2023-04-26T05:34:24;101538.22;;;8.77;100.00
77626;BME280;66794;43.764;10.436;2023-04-26T05:37:10;101533.91;;;8.94;100.00
77626;BME280;66794;43.764;10.436;2023-04-26T05:39:55;101538.56;;;9.11;100.00
77626;BME280;66794;43.764;10.436;2023-04-26T05:42:41;101538.16;;;9.06;100.00
77626;BME280;66794;43.764;10.436;2023-04-26T05:45:27;101543.09;;;9.20;100.00
77626;BME280;66794;43.764;10.436;2023-04-26T05:48:22;101547.66;;;9.10;100.00
77626;BME280;66794;43.764;10.436;2023-04-26T05:51:07;101545.41;;;9.43;100.00
77626;BME280;66794;43.764;10.436;2023-04-26T05:53:53;101550.44;;;9.56;100.00
77626;BME280;66794;43.764;10.436;2023-04-26T05:56:39;101553.63;;;9.79;100.00
77626;BME280;66794;43.764;10.436;2023-04-26T05:59:24;101545.28;;;9.90;100.00
77626;BME280;66794;43.764;10.436;2023-04-26T06:02:10;101547.75;;;10.29;100.00
77626;BME280;66794;43.764;10.436;2023-04-26T06:04:56;101550.66;;;10.17;100.00
77626;BME280;66794;43.764;10.436;2023-04-26T06:07:42;101555.94;;;10.37;100.00
77626;BME280;66794;43.764;10.436;2023-04-26T06:10:28;101558.72;;;10.45;100.00
77626;BME280;66794;43.764;10.436;2023-04-26T06:13:14;101575.03;;;10.53;100.00
77626;BME280;66794;43.764;10.436;2023-04-26T06:15:59;101569.66;;;10.79;100.00
77626;BME280;66794;43.764;10.436;2023-04-26T06:18:45;101574.53;;;10.93;100.00
77626;BME280;66794;43.764;10.436;2023-04-26T06:21:31;101571.97;;;11.18;100.00
77626;BME280;66794;43.764;10.436;2023-04-26T06:24:17;101573.75;;;11.35;100.00
77626;BME280;66794;43.764;10.436;2023-04-26T06:27:02;101570.25;;;11.43;100.00
77626;BME280;66794;43.764;10.436;2023-04-26T06:29:48;101566.63;;;12.19;100.00
77626;BME280;66794;43.764;10.436;2023-04-26T06:32:34;101571.72;;;11.79;100.00
77626;BME280;66794;43.764;10.436;2023-04-26T06:35:20;101580.06;;;11.78;100.00
77626;BME280;66794;43.764;10.436;2023-04-26T06:38:09;101574.25;;;11.73;100.00
77626;BME280;66794;43.764;10.436;2023-04-26T06:40:56;101578.09;;;11.88;100.00
77626;BME280;66794;43.764;10.436;2023-04-26T06:43:42;101577.59;;;12.01;100.00
77626;BME280;66794;43.764;10.436;2023-04-26T06:46:28;101577.69;;;12.25;100.00
77626;BME280;66794;43.764;10.436;2023-04-26T06:49:13;101578.72;;;12.41;100.00
77626;BME280;66794;43.764;10.436;2023-04-26T06:51:59;101587.03;;;12.47;100.00
77626;BME280;66794;43.764;10.436;2023-04-26T06:54:45;101586.19;;;12.71;100.00
77626;BME280;66794;43.764;10.436;2023-04-26T06:57:31;101591.63;;;12.96;100.00
77626;BME280;66794;43.764;10.436;2023-04-26T07:00:16;101588.88;;;13.04;100.00
77626;BME280;66794;43.764;10.436;2023-04-26T07:03:02;101583.78;;;13.33;100.00
77626;BME280;66794;43.764;10.436;2023-04-26T07:05:48;101594.81;;;13.32;100.00
77626;BME280;66794;43.764;10.436;2023-04-26T07:08:33;101598.00;;;13.52;100.00
77626;BME280;66794;43.764;10.436;2023-04-26T07:11:19;101606.72;;;13.39;100.00
77626;BME280;66794;43.764;10.436;2023-04-26T07:14:05;101602.59;;;13.51;100.00
77626;BME280;66794;43.764;10.436;2023-04-26T07:16:51;101611.75;;;13.66;100.00
77626;BME280;66794;43.764;10.436;2023-04-26T07:19:36;101617.97;;;13.75;100.00
77626;BME280;66794;43.764;10.436;2023-04-26T07:22:23;101619.53;;;13.78;100.00
77626;BME280;66794;43.764;10.436;2023-04-26T07:25:08;101618.22;;;14.05;100.00
77626;BME280;66794;43.764;10.436;2023-04-26T07:27:54;101617.38;;;14.35;100.00
77626;BME280;66794;43.764;10.436;2023-04-26T07:30:40;101607.84;;;14.31;100.00
77626;BME280;66794;43.764;10.436;2023-04-26T07:33:26;101616.75;;;14.25;100.00
77626;BME280;66794;43.764;10.436;2023-04-26T07:36:11;101570.06;;;13.97;100.00
77626;BME280;66794;43.764;10.436;2023-04-26T07:38:57;101615.53;;;14.28;100.00
77626;BME280;66794;43.764;10.436;2023-04-26T07:41:43;101622.81;;;14.35;100.00
77626;BME280;66794;43.764;10.436;2023-04-26T07:44:28;101621.09;;;14.65;100.00
77626;BME280;66794;43.764;10.436;2023-04-26T07:47:14;101623.66;;;14.90;100.00
77626;BME280;66794;43.764;10.436;2023-04-26T07:50:00;101619.72;;;15.07;100.00
77626;BME280;66794;43.764;10.436;2023-04-26T07:52:45;101623.97;;;15.10;100.00
77626;BME280;66794;43.764;10.436;2023-04-26T07:55:31;101622.16;;;15.02;100.00
77626;BME280;66794;43.764;10.436;2023-04-26T07:58:17;101629.66;;;15.00;100.00
77626;BME280;66794;43.764;10.436;2023-04-26T08:01:03;101629.94;;;15.28;100.00
77626;BME280;66794;43.764;10.436;2023-04-26T08:03:50;101631.34;;;15.24;100.00
77626;BME280;66794;43.764;10.436;2023-04-26T08:06:35;101630.06;;;15.49;100.00
77626;BME280;66794;43.764;10.436;2023-04-26T08:09:23;101621.13;;;15.70;100.00
77626;BME280;66794;43.764;10.436;2023-04-26T08:12:09;101628.13;;;15.88;100.00
77626;BME280;66794;43.764;10.436;2023-04-26T08:14:55;101632.72;;;15.72;98.90
77626;BME280;66794;43.764;10.436;2023-04-26T08:17:40;101632.25;;;15.84;96.79
77626;BME280;66794;43.764;10.436;2023-04-26T08:20:26;101644.88;;;15.99;95.05
77626;BME280;66794;43.764;10.436;2023-04-26T08:23:13;101645.16;;;15.90;95.68
77626;BME280;66794;43.764;10.436;2023-04-26T08:25:59;101643.38;;;15.82;95.42
77626;BME280;66794;43.764;10.436;2023-04-26T08:28:44;101648.94;;;16.25;95.97
77626;BME280;66794;43.764;10.436;2023-04-26T08:31:30;101651.19;;;16.72;95.72
77626;BME280;66794;43.764;10.436;2023-04-26T08:34:16;101651.88;;;16.60;94.08
77626;BME280;66794;43.764;10.436;2023-04-26T08:37:02;101653.47;;;16.90;94.24
77626;BME280;66794;43.764;10.436;2023-04-26T08:39:48;101661.94;;;16.95;91.07
77626;BME280;66794;43.764;10.436;2023-04-26T08:42:33;101668.13;;;17.04;91.04
77626;BME280;66794;43.764;10.436;2023-04-26T08:45:23;101666.63;;;17.01;92.09
77626;BME280;66794;43.764;10.436;2023-04-26T08:48:10;101666.44;;;17.03;89.92
77626;BME280;66794;43.764;10.436;2023-04-26T08:50:59;101662.13;;;17.43;89.00
77626;BME280;66794;43.764;10.436;2023-04-26T08:53:46;101663.03;;;17.22;86.37
77626;BME280;66794;43.764;10.436;2023-04-26T08:56:32;101662.84;;;17.80;84.32
77626;BME280;66794;43.764;10.436;2023-04-26T08:59:19;101660.56;;;17.83;81.40
77626;BME280;66794;43.764;10.436;2023-04-26T09:02:06;101661.81;;;17.59;82.26
77626;BME280;66794;43.764;10.436;2023-04-26T09:04:52;101663.22;;;18.11;80.94
77626;BME280;66794;43.764;10.436;2023-04-26T09:07:42;101660.25;;;18.06;76.63
77626;BME280;66794;43.764;10.436;2023-04-26T09:10:28;101665.50;;;18.01;80.05
77626;BME280;66794;43.764;10.436;2023-04-26T09:13:14;101648.59;;;18.52;76.05
77626;BME280;66794;43.764;10.436;2023-04-26T09:16:00;101649.41;;;18.33;75.86
77626;BME280;66794;43.764;10.436;2023-04-26T09:18:49;101649.16;;;18.28;72.87
77626;BME280;66794;43.764;10.436;2023-04-26T09:21:42;101650.56;;;18.10;71.72
77626;BME280;66794;43.764;10.436;2023-04-26T09:24:45;101650.78;;;18.16;68.26
77626;BME280;66794;43.764;10.436;2023-04-26T09:27:32;101642.47;;;18.50;71.14
77626;BME280;66794;43.764;10.436;2023-04-26T09:30:18;101648.28;;;18.88;67.91
77626;BME280;66794;43.764;10.436;2023-04-26T09:33:05;101648.28;;;19.28;67.45
77626;BME280;66794;43.764;10.436;2023-04-26T09:35:53;101647.41;;;19.54;65.76
77626;BME280;66794;43.764;10.436;2023-04-26T09:38:42;101645.09;;;19.64;63.37
77626;BME280;66794;43.764;10.436;2023-04-26T09:41:43;101646.34;;;19.55;61.50
77626;BME280;66794;43.764;10.436;2023-04-26T09:44:29;101642.31;;;19.78;54.91
77626;BME280;66794;43.764;10.436;2023-04-26T09:47:18;101647.00;;;19.57;53.22
77626;BME280;66794;43.764;10.436;2023-04-26T09:50:06;101635.94;;;19.84;54.14
77626;BME280;66794;43.764;10.436;2023-04-26T09:52:52;101638.72;;;19.90;53.34
77626;BME280;66794;43.764;10.436;2023-04-26T09:55:38;101643.34;;;19.96;52.72
77626;BME280;66794;43.764;10.436;2023-04-26T09:58:24;101637.56;;;20.05;51.50
77626;BME280;66794;43.764;10.436;2023-04-26T10:01:10;101636.34;;;19.94;49.41
77626;BME280;66794;43.764;10.436;2023-04-26T10:04:01;101637.72;;;20.16;45.51
77626;BME280;66794;43.764;10.436;2023-04-26T10:06:48;101631.34;;;19.71;49.08
77626;BME280;66794;43.764;10.436;2023-04-26T10:09:34;101625.47;;;19.28;46.19
77626;BME280;66794;43.764;10.436;2023-04-26T10:12:20;101634.13;;;18.91;46.60
77626;BME280;66794;43.764;10.436;2023-04-26T10:15:06;101628.00;;;19.42;44.54
77626;BME280;66794;43.764;10.436;2023-04-26T10:17:53;101631.31;;;19.78;41.06
77626;BME280;66794;43.764;10.436;2023-04-26T10:20:42;101627.91;;;19.89;40.44
77626;BME280;66794;43.764;10.436;2023-04-26T10:23:29;101629.75;;;20.53;38.53
77626;BME280;66794;43.764;10.436;2023-04-26T10:29:19;101621.84;;;20.25;33.93
77626;BME280;66794;43.764;10.436;2023-04-26T10:32:05;101628.03;;;20.59;36.20
77626;BME280;66794;43.764;10.436;2023-04-26T10:40:45;101623.66;;;20.83;33.37
77626;BME280;66794;43.764;10.436;2023-04-26T10:43:32;101615.44;;;21.51;32.41
77626;BME280;66794;43.764;10.436;2023-04-26T10:49:22;101618.06;;;21.83;34.23
77626;BME280;66794;43.764;10.436;2023-04-26T10:52:08;101616.66;;;21.55;31.81
77626;BME280;66794;43.764;10.436;2023-04-26T10:54:56;101606.84;;;21.16;30.98
77626;BME280;66794;43.764;10.436;2023-04-26T10:57:46;101605.84;;;21.10;32.01
77626;BME280;66794;43.764;10.436;2023-04-26T11:00:31;101599.41;;;20.91;32.45
77626;BME280;66794;43.764;10.436;2023-04-26T11:03:17;101605.56;;;21.62;33.45
77626;BME280;66794;43.764;10.436;2023-04-26T11:06:08;101595.75;;;21.84;29.90
77626;BME280;66794;43.764;10.436;2023-04-26T11:08:54;101592.91;;;21.91;29.41
77626;BME280;66794;43.764;10.436;2023-04-26T11:11:49;101594.06;;;21.46;29.78
77626;BME280;66794;43.764;10.436;2023-04-26T11:14:36;101590.88;;;21.86;28.29
77626;BME280;66794;43.764;10.436;2023-04-26T11:17:21;101579.41;;;21.27;29.25
77626;BME280;66794;43.764;10.436;2023-04-26T11:20:15;101580.91;;;21.48;29.47
77626;BME280;66794;43.764;10.436;2023-04-26T11:23:00;101581.06;;;22.39;28.74
77626;BME280;66794;43.764;10.436;2023-04-26T11:25:46;101574.16;;;22.90;28.99
77626;BME280;66794;43.764;10.436;2023-04-26T11:28:33;101580.22;;;22.80;27.86
77626;BME280;66794;43.764;10.436;2023-04-26T11:31:19;101575.47;;;23.10;27.79
77626;BME280;66794;43.764;10.436;2023-04-26T11:34:05;101579.44;;;22.61;27.32
77626;BME280;66794;43.764;10.436;2023-04-26T11:36:50;101572.50;;;22.70;28.21
77626;BME280;66794;43.764;10.436;2023-04-26T11:39:36;101572.25;;;22.60;27.74
77626;BME280;66794;43.764;10.436;2023-04-26T11:42:25;101561.09;;;22.06;26.96
77626;BME280;66794;43.764;10.436;2023-04-26T11:45:11;101567.03;;;22.40;26.21
77626;BME280;66794;43.764;10.436;2023-04-26T11:47:57;101550.78;;;22.62;25.98
77626;BME280;66794;43.764;10.436;2023-04-26T11:50:43;101556.41;;;22.07;27.16
77626;BME280;66794;43.764;10.436;2023-04-26T11:53:35;101560.13;;;22.01;28.49
77626;BME280;66794;43.764;10.436;2023-04-26T11:56:21;101553.97;;;23.24;27.44
77626;BME280;66794;43.764;10.436;2023-04-26T11:59:09;101546.91;;;23.17;25.01
77626;BME280;66794;43.764;10.436;2023-04-26T12:01:58;101554.66;;;22.73;22.97
77626;BME280;66794;43.764;10.436;2023-04-26T12:04:45;101554.44;;;22.98;21.95
77626;BME280;66794;43.764;10.436;2023-04-26T12:07:33;101562.06;;;22.72;24.63
77626;BME280;66794;43.764;10.436;2023-04-26T12:10:20;101561.06;;;22.97;24.21
77626;BME280;66794;43.764;10.436;2023-04-26T12:13:06;101559.19;;;22.67;24.36
77626;BME280;66794;43.764;10.436;2023-04-26T12:15:53;101549.44;;;22.53;25.40
77626;BME280;66794;43.764;10.436;2023-04-26T12:18:39;101555.91;;;23.24;24.67
77626;BME280;66794;43.764;10.436;2023-04-26T12:21:25;101558.06;;;23.33;26.46
77626;BME280;66794;43.764;10.436;2023-04-26T12:24:21;101558.66;;;23.24;26.29
77626;BME280;66794;43.764;10.436;2023-04-26T12:27:07;101552.47;;;22.87;27.08
77626;BME280;66794;43.764;10.436;2023-04-26T12:29:52;101556.28;;;23.27;27.13
77626;BME280;66794;43.764;10.436;2023-04-26T12:32:38;101548.78;;;23.51;26.34
77626;BME280;66794;43.764;10.436;2023-04-26T12:35:24;101547.59;;;23.99;25.45
77626;BME280;66794;43.764;10.436;2023-04-26T12:38:09;101551.47;;;23.86;26.36
77626;BME280;66794;43.764;10.436;2023-04-26T12:40:56;101550.69;;;24.60;27.18
77626;BME280;66794;43.764;10.436;2023-04-26T12:43:42;101546.72;;;23.58;26.90
77626;BME280;66794;43.764;10.436;2023-04-26T12:46:27;101547.09;;;23.50;28.65
77626;BME280;66794;43.764;10.436;2023-04-26T12:49:13;101549.47;;;23.58;27.84
77626;BME280;66794;43.764;10.436;2023-04-26T12:51:59;101547.72;;;23.41;32.95
77626;BME280;66794;43.764;10.436;2023-04-26T12:54:45;101540.38;;;22.88;34.53
77626;BME280;66794;43.764;10.436;2023-04-26T12:57:31;101555.47;;;22.73;35.64
77626;BME280;66794;43.764;10.436;2023-04-26T13:00:17;101545.47;;;22.61;35.10
77626;BME280;66794;43.764;10.436;2023-04-26T13:03:02;101547.75;;;23.17;35.95
77626;BME280;66794;43.764;10.436;2023-04-26T13:05:48;101547.28;;;22.67;34.83
77626;BME280;66794;43.764;10.436;2023-04-26T13:08:34;101547.81;;;22.34;35.13
77626;BME280;66794;43.764;10.436;2023-04-26T13:11:20;101550.84;;;23.21;34.77
77626;BME280;66794;43.764;10.436;2023-04-26T13:14:06;101558.81;;;22.22;33.85
77626;BME280;66794;43.764;10.436;2023-04-26T13:16:52;101551.06;;;22.84;36.10
77626;BME280;66794;43.764;10.436;2023-04-26T13:19:38;101553.97;;;23.01;35.51
77626;BME280;66794;43.764;10.436;2023-04-26T13:22:23;101549.53;;;23.12;35.41
77626;BME280;66794;43.764;10.436;2023-04-26T13:25:09;101544.81;;;23.71;35.25
77626;BME280;66794;43.764;10.436;2023-04-26T13:27:57;101539.31;;;23.35;35.89
77626;BME280;66794;43.764;10.436;2023-04-26T13:30:43;101546.59;;;23.53;33.13
77626;BME280;66794;43.764;10.436;2023-04-26T13:33:28;101537.75;;;23.40;36.24
77626;BME280;66794;43.764;10.436;2023-04-26T13:36:14;101535.91;;;22.63;36.85
77626;BME280;66794;43.764;10.436;2023-04-26T13:39:01;101536.69;;;23.17;36.75
77626;BME280;66794;43.764;10.436;2023-04-26T13:41:49;101534.38;;;23.49;35.09
77626;BME280;66794;43.764;10.436;2023-04-26T13:44:35;101545.56;;;23.95;34.85
77626;BME280;66794;43.764;10.436;2023-04-26T13:47:20;101534.50;;;23.95;36.79
77626;BME280;66794;43.764;10.436;2023-04-26T13:50:06;101535.59;;;23.06;35.79
77626;BME280;66794;43.764;10.436;2023-04-26T13:52:52;101540.13;;;23.36;36.29
77626;BME280;66794;43.764;10.436;2023-04-26T13:55:38;101541.81;;;23.25;35.26
77626;BME280;66794;43.764;10.436;2023-04-26T13:58:23;101530.91;;;23.07;34.79
77626;BME280;66794;43.764;10.436;2023-04-26T14:01:09;101535.19;;;22.79;34.60
77626;BME280;66794;43.764;10.436;2023-04-26T14:03:55;101537.97;;;23.26;33.26
77626;BME280;66794;43.764;10.436;2023-04-26T14:06:40;101535.59;;;23.30;34.03
77626;BME280;66794;43.764;10.436;2023-04-26T14:09:26;101529.84;;;24.12;33.59
77626;BME280;66794;43.764;10.436;2023-04-26T14:12:11;101533.06;;;22.10;36.93
77626;BME280;66794;43.764;10.436;2023-04-26T14:14:57;101532.09;;;22.34;35.11
77626;BME280;66794;43.764;10.436;2023-04-26T14:17:43;101526.47;;;21.81;33.84
77626;BME280;66794;43.764;10.436;2023-04-26T14:20:31;101524.56;;;22.11;35.64
77626;BME280;66794;43.764;10.436;2023-04-26T14:23:16;101528.03;;;23.02;34.70
77626;BME280;66794;43.764;10.436;2023-04-26T14:26:02;101525.28;;;23.02;35.27
77626;BME280;66794;43.764;10.436;2023-04-26T14:28:48;101526.47;;;23.06;34.98